createdAt,value
2023-08-11T00:01:05.821Z,1.33
2023-08-11T00:03:34.039Z,1.60
2023-08-11T00:06:01.736Z,1.65
2023-08-11T00:08:28.811Z,1.10
2023-08-11T00:10:56.000Z,1.45
2023-08-11T00:13:23.027Z,1.08
2023-08-11T00:15:50.212Z,1.30
2023-08-11T00:18:17.417Z,1.50
2023-08-11T00:20:44.595Z,1.30
2023-08-11T00:23:11.664Z,1.40
2023-08-11T00:25:38.784Z,1.40
2023-08-11T00:28:06.301Z,1.50
2023-08-11T00:30:33.471Z,1.38
2023-08-11T00:33:00.547Z,1.90
2023-08-11T00:35:27.747Z,1.60
2023-08-11T00:37:54.914Z,1.50
2023-08-11T00:40:22.075Z,1.40
2023-08-11T00:42:50.863Z,1.30
2023-08-11T00:45:18.307Z,1.33
2023-08-11T00:47:46.786Z,1.45
2023-08-11T00:50:17.269Z,1.60
2023-08-11T00:52:46.980Z,1.13
2023-08-11T00:55:15.283Z,1.38
2023-08-11T00:57:43.727Z,1.60
2023-08-11T01:00:13.724Z,1.48
2023-08-11T01:02:43.681Z,1.35
2023-08-11T01:05:17.257Z,1.60
2023-08-11T01:07:56.275Z,1.30
2023-08-11T01:10:46.612Z,1.42
2023-08-11T01:13:27.156Z,1.50
2023-08-11T01:16:01.402Z,1.50
2023-08-11T01:18:30.021Z,1.33
2023-08-11T01:21:07.188Z,1.58
2023-08-11T01:23:35.461Z,1.17
2023-08-11T01:26:03.559Z,1.33
2023-08-11T01:28:30.689Z,1.10
2023-08-11T01:30:57.713Z,1.80
2023-08-11T01:33:24.876Z,1.55
2023-08-11T01:35:51.978Z,1.70
2023-08-11T01:38:19.132Z,1.40
2023-08-11T01:40:47.123Z,1.65
2023-08-11T01:43:16.628Z,1.77
2023-08-11T01:45:49.554Z,1.83
2023-08-11T01:48:19.440Z,1.30
2023-08-11T01:50:47.844Z,1.65
2023-08-11T01:53:15.504Z,1.50
2023-08-11T01:55:45.636Z,1.48
2023-08-11T01:58:13.528Z,1.40
2023-08-11T02:00:40.580Z,1.55
2023-08-11T02:03:08.864Z,1.25
2023-08-11T02:05:36.061Z,1.27
2023-08-11T02:08:03.986Z,1.40
2023-08-11T02:10:31.346Z,1.33
2023-08-11T02:12:58.547Z,1.70
2023-08-11T02:15:25.831Z,1.65
2023-08-11T02:17:53.020Z,1.30
2023-08-11T02:20:23.968Z,1.33
2023-08-11T02:22:53.440Z,1.20
2023-08-11T02:25:20.888Z,1.73
2023-08-11T02:27:48.332Z,1.38
2023-08-11T02:30:15.884Z,2.20
2023-08-11T02:32:46.802Z,1.70
2023-08-11T02:35:18.655Z,1.45
2023-08-11T02:37:46.427Z,1.15
2023-08-11T02:40:13.954Z,1.52
2023-08-11T02:42:49.531Z,1.50
2023-08-11T02:45:16.820Z,1.30
2023-08-11T02:47:44.030Z,1.80
2023-08-11T02:50:12.389Z,1.35
2023-08-11T02:52:40.167Z,1.40
2023-08-11T02:55:08.873Z,1.42
2023-08-11T02:57:36.555Z,1.35
2023-08-11T03:00:11.141Z,1.85
2023-08-11T03:02:38.351Z,1.42
2023-08-11T03:05:08.420Z,1.42
2023-08-11T03:07:37.954Z,1.40
2023-08-11T03:10:05.948Z,1.50
2023-08-11T03:12:33.917Z,1.70
2023-08-11T03:15:01.014Z,1.83
2023-08-11T03:17:28.572Z,2.00
2023-08-11T03:19:55.800Z,1.88
2023-08-11T03:22:22.953Z,1.50
2023-08-11T03:24:50.424Z,2.05
2023-08-11T03:27:19.781Z,1.92
2023-08-11T03:29:46.931Z,1.60
2023-08-11T03:32:14.195Z,2.03
2023-08-11T03:34:42.457Z,1.65
2023-08-11T03:37:11.076Z,2.40
2023-08-11T03:39:38.221Z,1.52
2023-08-11T03:42:06.118Z,2.03
2023-08-11T03:44:33.838Z,2.70
2023-08-11T03:47:02.631Z,1.95
2023-08-11T03:49:30.306Z,1.50
2023-08-11T03:51:58.373Z,1.48
2023-08-11T03:54:35.622Z,1.63
2023-08-11T03:57:11.750Z,1.60
2023-08-11T03:59:38.945Z,1.83
2023-08-11T04:02:06.767Z,2.45
2023-08-11T04:04:34.156Z,1.95
2023-08-11T04:07:01.516Z,1.58
2023-08-11T04:09:30.332Z,1.50
2023-08-11T04:11:57.875Z,1.70
2023-08-11T04:14:25.772Z,1.92
2023-08-11T04:16:52.849Z,1.83
2023-08-11T04:19:19.951Z,1.65
2023-08-11T04:21:47.232Z,1.50
2023-08-11T04:24:16.503Z,1.60
2023-08-11T04:26:43.652Z,1.38
2023-08-11T04:29:11.038Z,1.80
2023-08-11T04:31:38.300Z,1.65
2023-08-11T04:34:06.550Z,1.55
2023-08-11T04:36:34.494Z,1.42
2023-08-11T04:39:01.798Z,1.45
2023-08-11T04:41:29.162Z,1.55
2023-08-11T04:43:56.295Z,1.30
2023-08-11T04:46:23.453Z,1.80
2023-08-11T04:48:51.037Z,1.75
2023-08-11T04:51:18.375Z,1.52
2023-08-11T04:53:45.473Z,1.60
2023-08-11T04:56:12.692Z,2.00
2023-08-11T04:58:40.593Z,1.50
2023-08-11T05:01:08.666Z,1.60
2023-08-11T05:03:35.851Z,1.50
2023-08-11T05:06:05.216Z,1.65
2023-08-11T05:08:34.092Z,2.15
2023-08-11T05:11:01.348Z,1.30
2023-08-11T05:13:28.427Z,1.30
2023-08-11T05:15:55.578Z,1.30
2023-08-11T05:18:23.443Z,1.70
2023-08-11T05:20:50.633Z,1.30
2023-08-11T05:23:17.725Z,1.67
2023-08-11T05:25:44.973Z,1.60
2023-08-11T05:28:12.299Z,1.70
2023-08-11T05:30:39.950Z,1.63
2023-08-11T05:33:07.100Z,1.60
2023-08-11T05:35:34.289Z,1.45
2023-08-11T05:38:02.726Z,1.58
2023-08-11T05:40:30.534Z,1.40
2023-08-11T05:42:57.692Z,1.65
2023-08-11T05:45:24.876Z,1.73
2023-08-11T05:47:52.097Z,1.60
2023-08-11T05:50:19.722Z,1.70
2023-08-11T05:52:46.920Z,1.50
2023-08-11T05:55:14.136Z,1.58
2023-08-11T05:57:41.329Z,1.58
2023-08-11T06:00:10.189Z,1.60
2023-08-11T06:02:43.735Z,1.73
2023-08-11T06:05:10.920Z,1.90
2023-08-11T06:07:37.978Z,1.17
2023-08-11T06:10:05.482Z,1.80
2023-08-11T06:12:32.702Z,2.08
2023-08-11T06:15:00.118Z,1.80
2023-08-11T06:17:27.263Z,1.92
2023-08-11T06:19:54.452Z,2.15
2023-08-11T06:22:21.566Z,2.25
2023-08-11T06:24:48.713Z,1.88
2023-08-11T06:27:16.193Z,1.63
2023-08-11T06:29:43.268Z,1.85
2023-08-11T06:32:10.348Z,1.85
2023-08-11T06:34:37.457Z,2.05
2023-08-11T06:37:04.788Z,1.83
2023-08-11T06:39:31.948Z,1.67
2023-08-11T06:41:58.999Z,1.77
2023-08-11T06:44:46.046Z,2.03
2023-08-11T06:47:13.111Z,1.60
2023-08-11T06:49:40.130Z,1.33
2023-08-11T06:52:07.369Z,2.22
2023-08-11T06:54:35.291Z,2.55
2023-08-11T06:57:05.877Z,2.70
2023-08-11T06:59:33.112Z,2.50
2023-08-11T07:02:00.260Z,2.42
2023-08-11T07:04:27.449Z,2.80
2023-08-11T07:06:56.004Z,2.67
2023-08-11T07:09:23.118Z,2.08
2023-08-11T07:11:50.238Z,2.00
2023-08-11T07:14:17.329Z,1.55
2023-08-11T07:16:44.439Z,2.03
2023-08-11T07:19:11.795Z,2.97
2023-08-11T07:21:38.865Z,2.65
2023-08-11T07:24:06.289Z,2.13
2023-08-11T07:26:33.593Z,2.50
2023-08-11T07:29:00.724Z,2.63
2023-08-11T07:31:27.916Z,2.78
2023-08-11T07:33:55.134Z,2.67
2023-08-11T07:36:22.520Z,4.60
2023-08-11T07:38:49.665Z,3.40
2023-08-11T07:41:17.112Z,2.70
2023-08-11T07:43:44.312Z,4.57
2023-08-11T07:46:11.490Z,3.22
2023-08-11T07:48:38.841Z,3.13
2023-08-11T07:51:05.990Z,2.15
2023-08-11T07:53:33.168Z,2.28
2023-08-11T07:56:00.515Z,2.65
2023-08-11T07:58:27.663Z,2.75
2023-08-11T08:00:54.872Z,2.50
2023-08-11T08:03:22.073Z,2.63
2023-08-11T08:05:49.292Z,2.30
2023-08-11T08:08:16.933Z,1.77
2023-08-11T08:10:44.097Z,2.20
2023-08-11T08:13:11.190Z,1.98
2023-08-11T08:15:39.102Z,2.15
2023-08-11T08:18:06.547Z,2.40
2023-08-11T08:20:33.682Z,2.60
2023-08-11T08:23:00.778Z,2.13
2023-08-11T08:25:28.021Z,2.55
2023-08-11T08:28:05.575Z,2.83
2023-08-11T08:30:34.754Z,2.70
2023-08-11T08:33:02.086Z,2.35
2023-08-11T08:35:29.223Z,2.17
2023-08-11T08:37:56.318Z,2.13
2023-08-11T08:40:23.831Z,2.30
2023-08-11T08:42:51.486Z,3.20
2023-08-11T08:45:20.320Z,2.20
2023-08-11T08:47:49.880Z,2.47
2023-08-11T08:50:18.681Z,2.63
2023-08-11T08:52:46.673Z,2.28
2023-08-11T08:55:13.866Z,2.08
2023-08-11T08:57:41.656Z,2.97
2023-08-11T09:00:09.508Z,2.45
2023-08-11T09:02:37.576Z,1.65
2023-08-11T09:05:05.122Z,2.40
2023-08-11T09:07:32.298Z,1.90
2023-08-11T09:09:59.574Z,2.50
2023-08-11T09:12:28.871Z,1.90
2023-08-11T09:14:56.203Z,2.45
2023-08-11T09:17:23.413Z,2.42
2023-08-11T09:19:54.414Z,2.00
2023-08-11T09:22:28.599Z,2.90
2023-08-11T09:24:57.008Z,1.58
2023-08-11T09:27:24.160Z,1.60
2023-08-11T09:29:51.663Z,1.88
2023-08-11T09:32:24.839Z,1.88
2023-08-11T09:34:54.744Z,2.92
2023-08-11T09:37:21.960Z,1.88
2023-08-11T09:39:50.618Z,1.60
2023-08-11T09:42:20.173Z,2.22
2023-08-11T09:44:52.197Z,1.90
2023-08-11T09:47:23.152Z,1.90
2023-08-11T09:49:50.530Z,1.40
2023-08-11T09:52:18.575Z,1.40
2023-08-11T09:54:47.505Z,1.38
2023-08-11T09:57:15.037Z,1.23
2023-08-11T09:59:47.887Z,1.35
2023-08-11T10:02:19.033Z,1.20
2023-08-11T10:04:58.044Z,1.63
2023-08-11T10:07:35.537Z,1.38
2023-08-11T10:10:13.157Z,1.50
2023-08-11T10:12:46.039Z,1.20
2023-08-11T10:15:17.312Z,1.13
2023-08-11T10:17:45.228Z,1.52
2023-08-11T10:20:13.200Z,0.98
2023-08-11T10:22:40.412Z,1.30
2023-08-11T10:25:09.028Z,0.98
2023-08-11T10:27:37.959Z,1.10
2023-08-11T10:30:07.115Z,0.80
2023-08-11T10:32:34.550Z,0.98
2023-08-11T10:35:02.237Z,0.88
2023-08-11T10:37:37.197Z,0.88
2023-08-11T10:40:04.423Z,0.70
2023-08-11T10:42:31.703Z,0.90
2023-08-11T10:45:28.018Z,0.80
2023-08-11T10:47:56.835Z,0.60
2023-08-11T10:50:24.100Z,0.63
2023-08-11T10:53:07.092Z,0.80
2023-08-11T10:55:37.478Z,0.60
2023-08-11T10:58:15.630Z,0.50
2023-08-11T11:00:43.183Z,0.50
2023-08-11T11:03:10.835Z,0.40
2023-08-11T11:05:38.190Z,0.50
2023-08-11T11:08:05.256Z,0.50
2023-08-11T11:10:43.878Z,0.50
2023-08-11T11:13:16.260Z,0.50
2023-08-11T11:15:43.447Z,0.60
2023-08-11T11:18:10.867Z,0.50
2023-08-11T11:20:39.181Z,0.50
2023-08-11T11:23:06.908Z,0.32
2023-08-11T11:25:34.112Z,0.40
2023-08-11T11:28:01.309Z,0.47
2023-08-11T11:30:28.491Z,0.30
2023-08-11T11:32:55.709Z,0.40
2023-08-11T11:35:24.964Z,0.30
2023-08-11T11:37:53.079Z,0.20
2023-08-11T11:40:20.312Z,0.60
2023-08-11T11:42:48.652Z,0.50
2023-08-11T11:45:16.244Z,0.25
2023-08-11T11:47:43.692Z,0.30
2023-08-11T11:50:10.972Z,0.40
2023-08-11T11:52:38.372Z,0.30
2023-08-11T11:55:09.059Z,0.38
2023-08-11T11:57:36.219Z,0.40
2023-08-11T12:00:04.864Z,0.45
2023-08-11T12:02:41.515Z,0.43
2023-08-11T12:05:09.632Z,0.40
2023-08-11T12:07:37.930Z,0.63
2023-08-11T12:10:08.887Z,0.43
2023-08-11T12:12:36.430Z,0.50
2023-08-11T12:15:04.571Z,0.55
2023-08-11T12:17:33.451Z,0.52
2023-08-11T12:20:09.586Z,0.60
2023-08-11T12:22:37.110Z,0.60
2023-08-11T12:25:04.705Z,0.70
2023-08-11T12:27:32.083Z,0.75
2023-08-11T12:29:59.290Z,0.40
2023-08-11T12:32:26.445Z,0.50
2023-08-11T12:34:53.628Z,0.50
2023-08-11T12:37:20.765Z,0.77
2023-08-11T12:39:47.915Z,0.60
2023-08-11T12:42:15.015Z,0.63
2023-08-11T12:44:42.538Z,0.70
2023-08-11T12:47:09.778Z,0.90
2023-08-11T12:49:36.948Z,0.90
2023-08-11T12:52:04.087Z,0.47
2023-08-11T12:54:31.135Z,0.60
2023-08-11T12:56:58.215Z,1.02
2023-08-11T12:59:26.076Z,0.90
2023-08-11T13:01:53.273Z,0.50
2023-08-11T13:04:20.475Z,0.63
2023-08-11T13:06:47.644Z,1.25
2023-08-11T13:09:15.936Z,0.50
2023-08-11T13:11:44.239Z,0.55
2023-08-11T13:14:11.659Z,0.90
2023-08-11T13:16:39.184Z,0.80
2023-08-11T13:19:06.713Z,0.90
2023-08-11T13:21:34.260Z,0.60
2023-08-11T13:24:02.048Z,0.50
2023-08-11T13:26:29.631Z,0.93
2023-08-11T13:28:58.639Z,0.98
2023-08-11T13:31:26.334Z,0.88
2023-08-11T13:33:53.444Z,0.90
2023-08-11T13:36:21.707Z,0.90
2023-08-11T13:38:48.974Z,0.85
2023-08-11T13:41:16.036Z,0.98
2023-08-11T13:43:43.116Z,1.10
2023-08-11T13:46:10.742Z,0.77
2023-08-11T13:48:38.079Z,1.02
2023-08-11T13:51:05.459Z,0.80
2023-08-11T13:53:32.554Z,0.90
2023-08-11T13:55:59.728Z,1.13
2023-08-11T13:58:26.872Z,0.90
2023-08-11T14:00:54.109Z,0.80
2023-08-11T14:03:21.244Z,0.90
2023-08-11T14:05:48.989Z,0.90
2023-08-11T14:08:16.263Z,0.90
2023-08-11T14:10:43.328Z,1.30
2023-08-11T14:13:11.812Z,0.70
2023-08-11T14:15:39.590Z,0.90
2023-08-11T14:18:07.505Z,1.00
2023-08-11T14:20:34.867Z,1.00
2023-08-11T14:23:02.093Z,1.05
2023-08-11T14:25:29.267Z,1.05
2023-08-11T14:27:56.529Z,0.80
2023-08-11T14:30:23.794Z,0.90
2023-08-11T14:32:51.036Z,1.10
2023-08-11T14:35:18.329Z,0.90
2023-08-11T14:37:45.529Z,0.75
2023-08-11T14:40:12.865Z,1.00
2023-08-11T14:42:40.001Z,1.00
2023-08-11T14:45:07.810Z,0.82
2023-08-11T14:47:34.952Z,0.90
2023-08-11T14:50:02.155Z,0.73
2023-08-11T14:52:29.253Z,0.98
2023-08-11T14:54:56.479Z,0.73
2023-08-11T14:57:24.657Z,0.80
2023-08-11T14:59:51.760Z,0.77
2023-08-11T15:02:19.032Z,0.93
2023-08-11T15:04:46.244Z,0.98
2023-08-11T15:07:13.347Z,1.08
2023-08-11T15:09:40.885Z,0.82
2023-08-11T15:12:08.894Z,0.88
2023-08-11T15:14:36.337Z,1.00
2023-08-11T15:17:03.753Z,0.90
2023-08-11T15:19:34.092Z,0.90
2023-08-11T15:22:01.266Z,0.85
2023-08-11T15:24:28.342Z,1.20
2023-08-11T15:26:55.444Z,1.00
2023-08-11T15:29:22.535Z,1.33
2023-08-11T15:31:51.062Z,1.20
2023-08-11T15:34:19.972Z,1.23
2023-08-11T15:36:47.058Z,1.02
2023-08-11T15:39:14.469Z,1.02
2023-08-11T15:41:41.621Z,1.23
2023-08-11T15:44:08.804Z,1.30
2023-08-11T15:46:36.017Z,1.02
2023-08-11T15:49:03.257Z,0.95
2023-08-11T15:51:30.428Z,0.80
2023-08-11T15:53:57.618Z,1.15
2023-08-11T15:56:24.677Z,0.80
2023-08-11T15:58:51.849Z,0.80
2023-08-11T16:01:18.904Z,1.05
2023-08-11T16:03:46.153Z,1.10
2023-08-11T16:06:13.276Z,1.00
2023-08-11T16:08:40.440Z,0.82
2023-08-11T16:11:07.936Z,1.48
2023-08-11T16:13:35.041Z,1.10
2023-08-11T16:16:02.233Z,1.17
2023-08-11T16:18:32.548Z,1.30
2023-08-11T16:21:03.905Z,1.00
2023-08-11T16:23:31.303Z,0.90
2023-08-11T16:25:58.587Z,0.80
2023-08-11T16:28:25.679Z,1.13
2023-08-11T16:30:53.861Z,0.70
2023-08-11T16:33:21.477Z,0.93
2023-08-11T16:35:49.186Z,1.20
2023-08-11T16:38:16.462Z,0.70
2023-08-11T16:40:43.562Z,1.10
2023-08-11T16:43:10.754Z,1.02
2023-08-11T16:45:37.847Z,1.00
2023-08-11T16:48:06.693Z,0.90
2023-08-11T16:50:33.864Z,1.35
2023-08-11T16:53:01.030Z,1.38
2023-08-11T16:55:28.156Z,1.20
2023-08-11T16:57:55.322Z,1.00
2023-08-11T17:00:22.692Z,0.98
2023-08-11T17:02:49.864Z,0.98
2023-08-11T17:05:17.106Z,1.05
2023-08-11T17:07:44.192Z,1.10
2023-08-11T17:10:11.383Z,1.17
2023-08-11T17:12:38.478Z,0.73
2023-08-11T17:15:07.012Z,0.98
2023-08-11T17:17:34.251Z,0.85
2023-08-11T17:20:01.371Z,1.02
2023-08-11T17:22:28.405Z,0.88
2023-08-11T17:24:55.596Z,1.10
2023-08-11T17:27:22.654Z,1.02
2023-08-11T17:29:51.195Z,0.90
2023-08-11T17:32:18.370Z,1.50
2023-08-11T17:34:57.059Z,1.02
2023-08-11T17:37:25.443Z,1.20
2023-08-11T17:39:52.912Z,1.13
2023-08-11T17:42:20.182Z,1.30
2023-08-11T17:44:47.315Z,1.35
2023-08-11T17:47:14.519Z,1.20
2023-08-11T17:49:41.623Z,1.20
2023-08-11T17:52:09.013Z,0.85
2023-08-11T17:54:37.849Z,0.90
2023-08-11T17:57:05.155Z,1.23
2023-08-11T17:59:32.229Z,1.00
2023-08-11T18:01:59.458Z,1.13
2023-08-11T18:04:26.628Z,0.88
2023-08-11T18:06:54.306Z,1.75
2023-08-11T18:09:21.373Z,1.30
2023-08-11T18:11:48.517Z,1.30
2023-08-11T18:14:15.637Z,1.23
2023-08-11T18:16:42.954Z,1.33
2023-08-11T18:19:10.328Z,1.83
2023-08-11T18:21:37.443Z,1.17
2023-08-11T18:24:04.810Z,1.52
2023-08-11T18:26:35.844Z,1.02
2023-08-11T18:29:03.451Z,1.38
2023-08-11T18:31:30.662Z,1.02
2023-08-11T18:33:58.858Z,1.00
2023-08-11T18:36:25.962Z,1.00
2023-08-11T18:38:53.203Z,1.33
2023-08-11T18:41:20.834Z,1.10
2023-08-11T18:43:47.913Z,1.30
2023-08-11T18:46:15.125Z,1.33
2023-08-11T18:48:42.227Z,1.20
2023-08-11T18:51:10.200Z,1.20
2023-08-11T18:53:37.498Z,1.38
2023-08-11T18:56:04.749Z,1.30
2023-08-11T18:58:31.908Z,1.15
2023-08-11T19:00:59.192Z,1.02
2023-08-11T19:03:26.450Z,1.10
2023-08-11T19:05:53.834Z,1.17
2023-08-11T19:08:20.907Z,1.23
2023-08-11T19:10:48.004Z,0.82
2023-08-11T19:13:15.084Z,1.08
2023-08-11T19:15:42.351Z,1.00
2023-08-11T19:18:09.561Z,1.17
2023-08-11T19:20:36.709Z,1.52
2023-08-11T19:23:04.004Z,1.27
2023-08-11T19:25:31.141Z,1.08
2023-08-11T19:27:58.214Z,1.23
2023-08-11T19:30:26.846Z,0.90
2023-08-11T19:32:54.993Z,1.45
2023-08-11T19:35:23.589Z,1.02
2023-08-11T19:37:50.651Z,1.20
2023-08-11T19:40:17.881Z,1.23
2023-08-11T19:42:45.003Z,1.23
2023-08-11T19:45:12.299Z,1.05
2023-08-11T19:47:39.436Z,1.20
2023-08-11T19:50:07.045Z,1.25
2023-08-11T19:52:35.812Z,0.75
2023-08-11T19:55:03.099Z,1.05
2023-08-11T19:57:30.278Z,0.90
2023-08-11T19:59:57.672Z,1.10
2023-08-11T20:02:24.843Z,0.88
2023-08-11T20:04:52.015Z,0.88
2023-08-11T20:07:19.312Z,0.90
2023-08-11T20:09:46.421Z,1.08
2023-08-11T20:12:13.559Z,1.83
2023-08-11T20:14:40.607Z,1.23
2023-08-11T20:17:07.924Z,1.33
2023-08-11T20:19:35.452Z,1.15
2023-08-11T20:22:02.724Z,2.20
2023-08-11T20:24:29.971Z,1.40
2023-08-11T20:26:57.622Z,1.52
2023-08-11T20:29:25.877Z,1.30
2023-08-11T20:31:55.469Z,1.35
2023-08-11T20:34:23.225Z,1.25
2023-08-11T20:36:51.510Z,1.10
2023-08-11T20:39:22.822Z,0.98
2023-08-11T20:41:51.173Z,1.00
2023-08-11T20:44:18.377Z,0.80
2023-08-11T20:46:45.490Z,0.98
2023-08-11T20:49:12.575Z,1.00
2023-08-11T20:51:39.877Z,1.02
2023-08-11T20:54:07.025Z,1.13
2023-08-11T20:56:34.993Z,0.80
2023-08-11T20:59:02.072Z,0.70
2023-08-11T21:01:29.201Z,0.80
2023-08-11T21:03:56.425Z,0.80
2023-08-11T21:06:23.666Z,0.73
2023-08-11T21:08:53.802Z,0.70
2023-08-11T21:11:20.935Z,0.88
2023-08-11T21:13:48.110Z,0.80
2023-08-11T21:16:15.663Z,1.30
2023-08-11T21:18:42.855Z,0.70
2023-08-11T21:21:09.966Z,0.73
2023-08-11T21:23:37.131Z,0.60
2023-08-11T21:26:04.239Z,1.00
2023-08-11T21:28:31.375Z,0.90
2023-08-11T21:31:15.684Z,0.90
2023-08-11T21:33:44.467Z,0.90
2023-08-11T21:36:11.614Z,0.90
2023-08-11T21:38:38.746Z,0.90
2023-08-11T21:41:06.104Z,0.90
2023-08-11T21:43:33.338Z,1.00
2023-08-11T21:46:00.445Z,1.00
2023-08-11T21:48:27.604Z,0.80
2023-08-11T21:50:56.853Z,1.00
2023-08-11T21:53:24.287Z,0.93
2023-08-11T21:55:52.203Z,0.80
2023-08-11T21:58:19.380Z,0.93
2023-08-11T22:00:46.620Z,0.88
2023-08-11T22:03:13.851Z,0.70
2023-08-11T22:05:41.145Z,1.10
2023-08-11T22:08:08.290Z,0.80
2023-08-11T22:10:35.783Z,1.02
2023-08-11T22:13:03.021Z,1.00
2023-08-11T22:15:30.183Z,0.65
2023-08-11T22:17:57.325Z,1.00
2023-08-11T22:20:24.802Z,0.80
2023-08-11T22:22:51.876Z,0.80
2023-08-11T22:25:20.495Z,0.85
2023-08-11T22:27:49.463Z,0.85
2023-08-11T22:30:17.164Z,0.77
2023-08-11T22:32:44.413Z,0.55
2023-08-11T22:35:12.079Z,0.90
2023-08-11T22:37:39.184Z,0.80
2023-08-11T22:40:07.439Z,1.08
2023-08-11T22:42:34.616Z,0.70
2023-08-11T22:45:01.630Z,0.88
2023-08-11T22:47:28.833Z,0.82
2023-08-11T22:49:56.813Z,0.80
2023-08-11T22:52:24.064Z,0.90
2023-08-11T22:54:51.304Z,0.75
2023-08-11T22:57:19.269Z,1.10
2023-08-11T22:59:46.379Z,0.75
2023-08-11T23:02:13.456Z,0.80
2023-08-11T23:04:41.652Z,1.10
2023-08-11T23:07:09.462Z,0.90
2023-08-11T23:09:36.926Z,0.98
2023-08-11T23:12:05.678Z,0.90
2023-08-11T23:14:32.908Z,0.70
2023-08-11T23:16:59.940Z,0.98
2023-08-11T23:19:27.076Z,0.82
2023-08-11T23:21:54.129Z,1.60
2023-08-11T23:24:21.405Z,1.20
2023-08-11T23:26:48.482Z,1.00
2023-08-11T23:29:15.591Z,0.75
2023-08-11T23:31:43.620Z,1.00
2023-08-11T23:34:11.094Z,1.60
2023-08-11T23:36:38.173Z,1.30
2023-08-11T23:39:07.269Z,1.63
2023-08-11T23:41:34.356Z,1.10
2023-08-11T23:44:01.951Z,1.50
2023-08-11T23:46:29.017Z,1.73
2023-08-11T23:48:56.327Z,1.35
2023-08-11T23:51:24.167Z,1.20
2023-08-11T23:53:51.370Z,1.10
2023-08-11T23:56:18.545Z,1.30
2023-08-11T23:58:45.668Z,1.67
